sensor_id;sensor_type;location;lat;lon;timestamp;temperature;humidity
26541;DHT22;14206;50.202;10.948;2023-05-10T00:01:01;16.30;64.70
26541;DHT22;14206;50.202;10.948;2023-05-10T00:03:29;16.30;64.90
26541;DHT22;14206;50.202;10.948;2023-05-10T00:05:56;16.30;65.20
26541;DHT22;14206;50.202;10.948;2023-05-10T00:08:23;16.20;65.70
26541;DHT22;14206;50.202;10.948;2023-05-10T00:10:49;16.20;65.30
26541;DHT22;14206;50.202;10.948;2023-05-10T00:13:16;16.20;65.20
26541;DHT22;14206;50.202;10.948;2023-05-10T00:15:43;16.20;65.10
26541;DHT22;14206;50.202;10.948;2023-05-10T00:18:10;16.20;65.50
26541;DHT22;14206;50.202;10.948;2023-05-10T00:20:36;16.20;66.60
26541;DHT22;14206;50.202;10.948;2023-05-10T00:23:03;16.20;65.90
26541;DHT22;14206;50.202;10.948;2023-05-10T00:25:30;16.20;65.90
26541;DHT22;14206;50.202;10.948;2023-05-10T00:27:57;16.20;65.90
26541;DHT22;14206;50.202;10.948;2023-05-10T00:30:24;16.20;65.60
26541;DHT22;14206;50.202;10.948;2023-05-10T00:32:51;16.20;66.10
26541;DHT22;14206;50.202;10.948;2023-05-10T00:35:18;16.30;65.90
26541;DHT22;14206;50.202;10.948;2023-05-10T00:37:45;16.30;65.80
26541;DHT22;14206;50.202;10.948;2023-05-10T00:40:12;16.30;65.20
26541;DHT22;14206;50.202;10.948;2023-05-10T00:42:41;16.20;65.60
26541;DHT22;14206;50.202;10.948;2023-05-10T00:45:08;16.20;65.80
26541;DHT22;14206;50.202;10.948;2023-05-10T00:47:35;16.20;67.30
26541;DHT22;14206;50.202;10.948;2023-05-10T00:50:02;16.20;66.30
26541;DHT22;14206;50.202;10.948;2023-05-10T00:52:31;16.20;66.10
26541;DHT22;14206;50.202;10.948;2023-05-10T00:54:58;16.10;67.00
26541;DHT22;14206;50.202;10.948;2023-05-10T00:57:25;16.10;67.10
26541;DHT22;14206;50.202;10.948;2023-05-10T00:59:52;16.10;66.90
26541;DHT22;14206;50.202;10.948;2023-05-10T01:02:19;16.00;66.60
26541;DHT22;14206;50.202;10.948;2023-05-10T01:04:46;16.00;66.60
26541;DHT22;14206;50.202;10.948;2023-05-10T01:07:13;16.00;66.60
26541;DHT22;14206;50.202;10.948;2023-05-10T01:09:40;16.00;67.00
26541;DHT22;14206;50.202;10.948;2023-05-10T01:12:07;16.00;66.70
26541;DHT22;14206;50.202;10.948;2023-05-10T01:14:34;16.00;66.70
26541;DHT22;14206;50.202;10.948;2023-05-10T01:17:04;15.90;66.80
26541;DHT22;14206;50.202;10.948;2023-05-10T01:19:31;15.90;67.20
26541;DHT22;14206;50.202;10.948;2023-05-10T01:36:05;15.80;67.60
26541;DHT22;14206;50.202;10.948;2023-05-10T01:38:46;15.80;68.40
26541;DHT22;14206;50.202;10.948;2023-05-10T01:41:18;15.80;68.40
26541;DHT22;14206;50.202;10.948;2023-05-10T01:46:35;15.80;68.90
26541;DHT22;14206;50.202;10.948;2023-05-10T01:49:07;15.80;69.00
26541;DHT22;14206;50.202;10.948;2023-05-10T01:51:54;15.80;69.30
26541;DHT22;14206;50.202;10.948;2023-05-10T01:54:27;15.80;69.60
26541;DHT22;14206;50.202;10.948;2023-05-10T01:56:59;15.90;69.60
26541;DHT22;14206;50.202;10.948;2023-05-10T01:59:30;15.90;70.10
26541;DHT22;14206;50.202;10.948;2023-05-10T02:01:59;15.90;71.10
26541;DHT22;14206;50.202;10.948;2023-05-10T02:04:28;16.00;71.30
26541;DHT22;14206;50.202;10.948;2023-05-10T02:06:56;16.00;71.60
26541;DHT22;14206;50.202;10.948;2023-05-10T02:09:25;16.00;75.50
26541;DHT22;14206;50.202;10.948;2023-05-10T02:11:55;16.10;75.10
26541;DHT22;14206;50.202;10.948;2023-05-10T02:14:25;16.00;76.10
26541;DHT22;14206;50.202;10.948;2023-05-10T02:16:53;16.10;76.30
26541;DHT22;14206;50.202;10.948;2023-05-10T02:19:22;16.10;75.80
26541;DHT22;14206;50.202;10.948;2023-05-10T02:21:51;16.10;75.50
26541;DHT22;14206;50.202;10.948;2023-05-10T02:24:18;16.10;75.70
26541;DHT22;14206;50.202;10.948;2023-05-10T02:26:47;16.10;75.70
26541;DHT22;14206;50.202;10.948;2023-05-10T02:29:16;16.10;75.20
26541;DHT22;14206;50.202;10.948;2023-05-10T02:31:44;16.00;75.60
26541;DHT22;14206;50.202;10.948;2023-05-10T02:34:12;16.00;76.60
26541;DHT22;14206;50.202;10.948;2023-05-10T02:36:40;16.00;77.10
26541;DHT22;14206;50.202;10.948;2023-05-10T02:39:08;16.00;76.90
26541;DHT22;14206;50.202;10.948;2023-05-10T02:41:40;16.00;77.60
26541;DHT22;14206;50.202;10.948;2023-05-10T02:44:09;16.00;76.70
26541;DHT22;14206;50.202;10.948;2023-05-10T02:46:37;16.00;76.30
26541;DHT22;14206;50.202;10.948;2023-05-10T02:49:04;16.00;76.60
26541;DHT22;14206;50.202;10.948;2023-05-10T02:51:32;16.00;77.40
26541;DHT22;14206;50.202;10.948;2023-05-10T02:54:07;16.00;76.90
26541;DHT22;14206;50.202;10.948;2023-05-10T02:56:36;16.00;77.40
26541;DHT22;14206;50.202;10.948;2023-05-10T02:59:06;16.00;75.40
26541;DHT22;14206;50.202;10.948;2023-05-10T03:01:33;16.00;75.30
26541;DHT22;14206;50.202;10.948;2023-05-10T03:03:59;15.90;75.70
26541;DHT22;14206;50.202;10.948;2023-05-10T03:06:26;15.80;76.00
26541;DHT22;14206;50.202;10.948;2023-05-10T03:08:55;15.80;76.40
26541;DHT22;14206;50.202;10.948;2023-05-10T03:11:37;15.80;76.40
26541;DHT22;14206;50.202;10.948;2023-05-10T03:14:25;15.80;76.90
26541;DHT22;14206;50.202;10.948;2023-05-10T03:17:09;15.80;77.60
26541;DHT22;14206;50.202;10.948;2023-05-10T03:19:51;15.80;79.50
26541;DHT22;14206;50.202;10.948;2023-05-10T03:22:38;15.80;79.80
26541;DHT22;14206;50.202;10.948;2023-05-10T03:25:08;15.80;81.10
26541;DHT22;14206;50.202;10.948;2023-05-10T03:27:43;15.90;81.50
26541;DHT22;14206;50.202;10.948;2023-05-10T03:30:12;15.80;80.80
26541;DHT22;14206;50.202;10.948;2023-05-10T03:32:39;15.70;81.80
26541;DHT22;14206;50.202;10.948;2023-05-10T03:35:11;15.60;83.00
26541;DHT22;14206;50.202;10.948;2023-05-10T03:37:39;15.50;82.60
26541;DHT22;14206;50.202;10.948;2023-05-10T03:40:07;15.40;83.30
26541;DHT22;14206;50.202;10.948;2023-05-10T03:42:36;15.40;83.40
26541;DHT22;14206;50.202;10.948;2023-05-10T03:45:03;15.30;83.90
26541;DHT22;14206;50.202;10.948;2023-05-10T03:47:30;15.30;83.60
26541;DHT22;14206;50.202;10.948;2023-05-10T03:49:58;15.30;84.40
26541;DHT22;14206;50.202;10.948;2023-05-10T03:52:25;15.30;85.40
26541;DHT22;14206;50.202;10.948;2023-05-10T03:54:51;15.30;86.30
26541;DHT22;14206;50.202;10.948;2023-05-10T03:57:18;15.30;87.00
26541;DHT22;14206;50.202;10.948;2023-05-10T03:59:45;15.30;87.60
26541;DHT22;14206;50.202;10.948;2023-05-10T04:02:12;15.20;88.60
26541;DHT22;14206;50.202;10.948;2023-05-10T04:04:39;15.20;89.10
26541;DHT22;14206;50.202;10.948;2023-05-10T04:07:05;15.10;89.80
26541;DHT22;14206;50.202;10.948;2023-05-10T04:09:33;15.10;90.20
26541;DHT22;14206;50.202;10.948;2023-05-10T04:12:00;15.00;91.40
26541;DHT22;14206;50.202;10.948;2023-05-10T04:14:28;14.90;93.00
26541;DHT22;14206;50.202;10.948;2023-05-10T04:16:55;14.90;93.20
26541;DHT22;14206;50.202;10.948;2023-05-10T04:19:22;14.90;93.90
26541;DHT22;14206;50.202;10.948;2023-05-10T04:21:50;14.90;94.90
26541;DHT22;14206;50.202;10.948;2023-05-10T04:24:16;14.90;94.70
26541;DHT22;14206;50.202;10.948;2023-05-10T04:26:43;14.90;95.00
26541;DHT22;14206;50.202;10.948;2023-05-10T04:29:10;14.80;95.30
26541;DHT22;14206;50.202;10.948;2023-05-10T04:31:37;14.70;96.60
26541;DHT22;14206;50.202;10.948;2023-05-10T04:34:04;14.70;96.60
26541;DHT22;14206;50.202;10.948;2023-05-10T04:36:33;14.70;96.60
26541;DHT22;14206;50.202;10.948;2023-05-10T04:39:02;14.70;96.60
26541;DHT22;14206;50.202;10.948;2023-05-10T04:41:29;14.70;96.60
26541;DHT22;14206;50.202;10.948;2023-05-10T04:43:56;14.70;96.60
26541;DHT22;14206;50.202;10.948;2023-05-10T04:46:23;14.70;96.60
26541;DHT22;14206;50.202;10.948;2023-05-10T04:48:50;14.60;96.60
26541;DHT22;14206;50.202;10.948;2023-05-10T04:51:17;14.60;96.60
26541;DHT22;14206;50.202;10.948;2023-05-10T04:53:43;14.60;96.60
26541;DHT22;14206;50.202;10.948;2023-05-10T04:56:19;14.60;96.60
26541;DHT22;14206;50.202;10.948;2023-05-10T04:58:46;14.60;96.60
26541;DHT22;14206;50.202;10.948;2023-05-10T05:01:13;14.60;96.60
26541;DHT22;14206;50.202;10.948;2023-05-10T05:03:40;14.60;96.60
26541;DHT22;14206;50.202;10.948;2023-05-10T05:06:07;14.70;96.60
26541;DHT22;14206;50.202;10.948;2023-05-10T05:08:34;14.80;96.60
26541;DHT22;14206;50.202;10.948;2023-05-10T05:11:01;14.80;96.60
26541;DHT22;14206;50.202;10.948;2023-05-10T05:13:28;14.80;96.60
26541;DHT22;14206;50.202;10.948;2023-05-10T05:15:56;14.80;96.60
26541;DHT22;14206;50.202;10.948;2023-05-10T05:18:23;14.70;96.60
26541;DHT22;14206;50.202;10.948;2023-05-10T05:20:50;14.80;96.60
26541;DHT22;14206;50.202;10.948;2023-05-10T05:23:16;14.80;96.60
26541;DHT22;14206;50.202;10.948;2023-05-10T05:25:44;14.80;96.60
26541;DHT22;14206;50.202;10.948;2023-05-10T05:28:11;14.80;96.60
26541;DHT22;14206;50.202;10.948;2023-05-10T05:30:38;14.80;96.60
26541;DHT22;14206;50.202;10.948;2023-05-10T05:33:05;14.80;96.60
26541;DHT22;14206;50.202;10.948;2023-05-10T05:35:33;14.80;96.60
26541;DHT22;14206;50.202;10.948;2023-05-10T05:37:59;14.80;96.60
26541;DHT22;14206;50.202;10.948;2023-05-10T05:40:27;14.80;96.60
26541;DHT22;14206;50.202;10.948;2023-05-10T05:42:53;14.80;96.60
26541;DHT22;14206;50.202;10.948;2023-05-10T05:45:20;14.80;96.60
26541;DHT22;14206;50.202;10.948;2023-05-10T05:47:47;14.80;96.60
26541;DHT22;14206;50.202;10.948;2023-05-10T05:50:14;14.80;96.60
26541;DHT22;14206;50.202;10.948;2023-05-10T05:52:41;14.80;96.60
26541;DHT22;14206;50.202;10.948;2023-05-10T05:55:08;14.80;96.60
26541;DHT22;14206;50.202;10.948;2023-05-10T05:57:35;14.80;96.60
26541;DHT22;14206;50.202;10.948;2023-05-10T06:00:02;14.80;96.60
26541;DHT22;14206;50.202;10.948;2023-05-10T06:02:38;14.80;96.60
26541;DHT22;14206;50.202;10.948;2023-05-10T06:05:05;14.80;96.60
26541;DHT22;14206;50.202;10.948;2023-05-10T06:07:32;14.80;96.60
26541;DHT22;14206;50.202;10.948;2023-05-10T06:09:59;14.70;96.60
26541;DHT22;14206;50.202;10.948;2023-05-10T06:12:26;14.70;96.60
26541;DHT22;14206;50.202;10.948;2023-05-10T06:14:53;14.70;96.60
26541;DHT22;14206;50.202;10.948;2023-05-10T06:17:19;14.70;96.60
26541;DHT22;14206;50.202;10.948;2023-05-10T06:19:46;14.70;96.60
26541;DHT22;14206;50.202;10.948;2023-05-10T06:22:13;14.80;96.60
26541;DHT22;14206;50.202;10.948;2023-05-10T06:24:40;14.90;96.60
26541;DHT22;14206;50.202;10.948;2023-05-10T06:27:08;15.00;96.60
26541;DHT22;14206;50.202;10.948;2023-05-10T06:29:34;15.10;96.60
26541;DHT22;14206;50.202;10.948;2023-05-10T06:32:01;15.20;96.60
26541;DHT22;14206;50.202;10.948;2023-05-10T06:34:28;15.20;96.60
26541;DHT22;14206;50.202;10.948;2023-05-10T06:36:55;15.30;96.60
26541;DHT22;14206;50.202;10.948;2023-05-10T06:39:22;15.30;96.60
26541;DHT22;14206;50.202;10.948;2023-05-10T06:41:49;15.40;96.60
26541;DHT22;14206;50.202;10.948;2023-05-10T06:44:18;15.60;96.60
26541;DHT22;14206;50.202;10.948;2023-05-10T06:46:44;15.70;96.60
26541;DHT22;14206;50.202;10.948;2023-05-10T06:49:11;15.70;96.40
26541;DHT22;14206;50.202;10.948;2023-05-10T06:51:38;15.90;95.90
26541;DHT22;14206;50.202;10.948;2023-05-10T06:54:05;16.10;95.30
26541;DHT22;14206;50.202;10.948;2023-05-10T06:56:32;16.20;95.90
26541;DHT22;14206;50.202;10.948;2023-05-10T06:58:59;16.40;94.90
26541;DHT22;14206;50.202;10.948;2023-05-10T07:01:26;16.60;93.50
26541;DHT22;14206;50.202;10.948;2023-05-10T07:03:52;16.80;92.50
26541;DHT22;14206;50.202;10.948;2023-05-10T07:06:19;16.90;91.90
26541;DHT22;14206;50.202;10.948;2023-05-10T07:08:59;17.00;92.30
26541;DHT22;14206;50.202;10.948;2023-05-10T07:11:25;17.10;91.10
26541;DHT22;14206;50.202;10.948;2023-05-10T07:13:53;17.20;91.30
26541;DHT22;14206;50.202;10.948;2023-05-10T07:16:20;17.30;90.20
26541;DHT22;14206;50.202;10.948;2023-05-10T07:18:48;17.30;90.40
26541;DHT22;14206;50.202;10.948;2023-05-10T07:21:14;17.40;89.60
26541;DHT22;14206;50.202;10.948;2023-05-10T07:23:41;17.40;89.50
26541;DHT22;14206;50.202;10.948;2023-05-10T07:26:11;17.40;89.70
26541;DHT22;14206;50.202;10.948;2023-05-10T07:28:38;17.30;89.10
26541;DHT22;14206;50.202;10.948;2023-05-10T07:31:05;17.40;89.30
26541;DHT22;14206;50.202;10.948;2023-05-10T07:33:32;17.30;88.90
26541;DHT22;14206;50.202;10.948;2023-05-10T07:35:59;17.20;88.80
26541;DHT22;14206;50.202;10.948;2023-05-10T07:38:26;17.10;89.30
26541;DHT22;14206;50.202;10.948;2023-05-10T07:40:53;17.00;89.20
26541;DHT22;14206;50.202;10.948;2023-05-10T07:43:20;17.00;89.10
26541;DHT22;14206;50.202;10.948;2023-05-10T07:45:46;16.90;90.00
26541;DHT22;14206;50.202;10.948;2023-05-10T07:48:13;16.90;89.90
26541;DHT22;14206;50.202;10.948;2023-05-10T07:50:40;17.00;89.60
26541;DHT22;14206;50.202;10.948;2023-05-10T07:53:07;17.00;89.00
26541;DHT22;14206;50.202;10.948;2023-05-10T07:55:34;16.90;89.20
26541;DHT22;14206;50.202;10.948;2023-05-10T07:58:01;16.80;88.60
26541;DHT22;14206;50.202;10.948;2023-05-10T08:00:28;16.70;88.80
26541;DHT22;14206;50.202;10.948;2023-05-10T08:02:55;16.70;89.10
26541;DHT22;14206;50.202;10.948;2023-05-10T08:05:22;16.60;89.70
26541;DHT22;14206;50.202;10.948;2023-05-10T08:07:48;16.70;89.80
26541;DHT22;14206;50.202;10.948;2023-05-10T08:10:15;17.00;90.00
26541;DHT22;14206;50.202;10.948;2023-05-10T08:12:43;17.20;88.30
26541;DHT22;14206;50.202;10.948;2023-05-10T08:15:10;17.40;88.40
26541;DHT22;14206;50.202;10.948;2023-05-10T08:17:37;17.70;87.70
26541;DHT22;14206;50.202;10.948;2023-05-10T08:20:04;17.80;85.40
26541;DHT22;14206;50.202;10.948;2023-05-10T08:22:31;18.00;85.20
26541;DHT22;14206;50.202;10.948;2023-05-10T08:24:58;18.10;84.80
26541;DHT22;14206;50.202;10.948;2023-05-10T08:27:24;18.30;84.50
26541;DHT22;14206;50.202;10.948;2023-05-10T08:29:51;18.50;83.40
26541;DHT22;14206;50.202;10.948;2023-05-10T08:32:18;18.70;82.90
26541;DHT22;14206;50.202;10.948;2023-05-10T08:34:45;19.00;82.60
26541;DHT22;14206;50.202;10.948;2023-05-10T08:37:12;19.40;82.80
26541;DHT22;14206;50.202;10.948;2023-05-10T08:39:40;19.90;82.70
26541;DHT22;14206;50.202;10.948;2023-05-10T08:42:07;20.00;79.90
26541;DHT22;14206;50.202;10.948;2023-05-10T08:44:36;19.80;78.40
26541;DHT22;14206;50.202;10.948;2023-05-10T08:47:06;19.80;78.90
26541;DHT22;14206;50.202;10.948;2023-05-10T08:49:34;19.80;79.60
26541;DHT22;14206;50.202;10.948;2023-05-10T08:52:05;19.90;80.70
26541;DHT22;14206;50.202;10.948;2023-05-10T08:54:34;20.40;78.80
26541;DHT22;14206;50.202;10.948;2023-05-10T08:57:01;20.80;76.70
26541;DHT22;14206;50.202;10.948;2023-05-10T08:59:28;20.80;74.90
26541;DHT22;14206;50.202;10.948;2023-05-10T09:01:57;21.10;74.20
26541;DHT22;14206;50.202;10.948;2023-05-10T09:04:25;21.50;74.60
26541;DHT22;14206;50.202;10.948;2023-05-10T09:06:53;21.50;71.80
26541;DHT22;14206;50.202;10.948;2023-05-10T09:09:20;21.30;72.40
26541;DHT22;14206;50.202;10.948;2023-05-10T09:11:48;20.90;73.40
26541;DHT22;14206;50.202;10.948;2023-05-10T09:14:15;20.80;74.50
26541;DHT22;14206;50.202;10.948;2023-05-10T09:16:42;20.80;74.70
26541;DHT22;14206;50.202;10.948;2023-05-10T09:19:09;20.70;73.60
26541;DHT22;14206;50.202;10.948;2023-05-10T09:21:37;20.40;74.60
26541;DHT22;14206;50.202;10.948;2023-05-10T09:24:08;20.20;74.80
26541;DHT22;14206;50.202;10.948;2023-05-10T09:26:45;19.90;76.00
26541;DHT22;14206;50.202;10.948;2023-05-10T09:29:14;19.70;76.30
26541;DHT22;14206;50.202;10.948;2023-05-10T09:31:52;19.80;77.10
26541;DHT22;14206;50.202;10.948;2023-05-10T09:34:30;20.10;75.60
26541;DHT22;14206;50.202;10.948;2023-05-10T09:36:59;20.10;75.40
26541;DHT22;14206;50.202;10.948;2023-05-10T09:42:09;19.90;75.30
26541;DHT22;14206;50.202;10.948;2023-05-10T09:44:36;19.80;75.90
26541;DHT22;14206;50.202;10.948;2023-05-10T09:47:04;19.70;76.60
26541;DHT22;14206;50.202;10.948;2023-05-10T09:49:31;19.70;77.10
26541;DHT22;14206;50.202;10.948;2023-05-10T09:52:00;19.80;77.40
26541;DHT22;14206;50.202;10.948;2023-05-10T09:54:28;19.80;76.30
26541;DHT22;14206;50.202;10.948;2023-05-10T09:56:55;19.60;76.70
26541;DHT22;14206;50.202;10.948;2023-05-10T09:59:25;19.30;77.50
26541;DHT22;14206;50.202;10.948;2023-05-10T10:01:57;19.40;78.30
26541;DHT22;14206;50.202;10.948;2023-05-10T10:04:25;19.80;77.30
26541;DHT22;14206;50.202;10.948;2023-05-10T10:07:04;20.30;77.00
26541;DHT22;14206;50.202;10.948;2023-05-10T10:09:33;20.70;72.90
26541;DHT22;14206;50.202;10.948;2023-05-10T10:12:01;21.30;72.70
26541;DHT22;14206;50.202;10.948;2023-05-10T10:14:29;21.90;71.90
26541;DHT22;14206;50.202;10.948;2023-05-10T10:16:56;22.40;70.80
26541;DHT22;14206;50.202;10.948;2023-05-10T10:19:35;23.40;69.50
26541;DHT22;14206;50.202;10.948;2023-05-10T10:22:02;24.10;66.50
26541;DHT22;14206;50.202;10.948;2023-05-10T10:24:29;24.00;66.50
26541;DHT22;14206;50.202;10.948;2023-05-10T10:27:09;23.80;66.10
26541;DHT22;14206;50.202;10.948;2023-05-10T10:30:02;23.20;67.00
26541;DHT22;14206;50.202;10.948;2023-05-10T10:35:23;21.70;70.70
26541;DHT22;14206;50.202;10.948;2023-05-10T10:37:50;21.10;72.90
26541;DHT22;14206;50.202;10.948;2023-05-10T10:40:24;21.00;73.00
26541;DHT22;14206;50.202;10.948;2023-05-10T10:42:52;20.90;71.80
26541;DHT22;14206;50.202;10.948;2023-05-10T10:45:20;20.60;71.80
26541;DHT22;14206;50.202;10.948;2023-05-10T10:47:48;20.30;73.70
26541;DHT22;14206;50.202;10.948;2023-05-10T10:50:15;20.30;74.10
26541;DHT22;14206;50.202;10.948;2023-05-10T10:52:45;20.40;73.90
26541;DHT22;14206;50.202;10.948;2023-05-10T10:55:20;20.60;73.40
26541;DHT22;14206;50.202;10.948;2023-05-10T10:57:55;20.60;75.60
26541;DHT22;14206;50.202;10.948;2023-05-10T11:00:35;20.80;75.90
26541;DHT22;14206;50.202;10.948;2023-05-10T11:03:14;21.00;77.20
26541;DHT22;14206;50.202;10.948;2023-05-10T11:05:46;21.30;75.40
26541;DHT22;14206;50.202;10.948;2023-05-10T11:08:29;21.20;74.50
26541;DHT22;14206;50.202;10.948;2023-05-10T11:13:32;21.00;76.00
26541;DHT22;14206;50.202;10.948;2023-05-10T11:16:11;21.00;76.40
26541;DHT22;14206;50.202;10.948;2023-05-10T11:18:38;20.80;76.60
26541;DHT22;14206;50.202;10.948;2023-05-10T11:21:05;20.70;77.90
26541;DHT22;14206;50.202;10.948;2023-05-10T11:26:08;20.50;77.10
26541;DHT22;14206;50.202;10.948;2023-05-10T11:28:48;20.30;77.30
26541;DHT22;14206;50.202;10.948;2023-05-10T11:31:16;20.10;77.90
26541;DHT22;14206;50.202;10.948;2023-05-10T11:33:49;20.00;78.40
26541;DHT22;14206;50.202;10.948;2023-05-10T11:36:21;19.90;79.10
26541;DHT22;14206;50.202;10.948;2023-05-10T11:38:48;19.90;78.90
26541;DHT22;14206;50.202;10.948;2023-05-10T11:41:17;19.70;78.20
26541;DHT22;14206;50.202;10.948;2023-05-10T11:43:46;19.60;79.40
26541;DHT22;14206;50.202;10.948;2023-05-10T11:46:17;19.60;80.80
26541;DHT22;14206;50.202;10.948;2023-05-10T11:48:45;19.60;79.90
26541;DHT22;14206;50.202;10.948;2023-05-10T11:51:12;19.70;80.90
26541;DHT22;14206;50.202;10.948;2023-05-10T11:53:39;19.70;80.50
26541;DHT22;14206;50.202;10.948;2023-05-10T11:56:07;19.80;79.90
26541;DHT22;14206;50.202;10.948;2023-05-10T11:58:35;20.00;78.90
26541;DHT22;14206;50.202;10.948;2023-05-10T12:01:06;20.00;80.00
26541;DHT22;14206;50.202;10.948;2023-05-10T12:03:33;20.30;79.10
26541;DHT22;14206;50.202;10.948;2023-05-10T12:06:01;20.60;78.60
26541;DHT22;14206;50.202;10.948;2023-05-10T12:08:29;20.90;77.80
26541;DHT22;14206;50.202;10.948;2023-05-10T12:11:07;21.30;76.00
26541;DHT22;14206;50.202;10.948;2023-05-10T12:13:38;21.50;75.90
26541;DHT22;14206;50.202;10.948;2023-05-10T12:16:35;21.60;74.60
26541;DHT22;14206;50.202;10.948;2023-05-10T12:19:02;21.60;74.00
26541;DHT22;14206;50.202;10.948;2023-05-10T12:21:29;21.50;73.20
26541;DHT22;14206;50.202;10.948;2023-05-10T12:24:02;21.40;73.20
26541;DHT22;14206;50.202;10.948;2023-05-10T12:26:29;21.60;73.80
26541;DHT22;14206;50.202;10.948;2023-05-10T12:29:16;21.90;72.10
26541;DHT22;14206;50.202;10.948;2023-05-10T12:31:57;22.00;71.80
26541;DHT22;14206;50.202;10.948;2023-05-10T12:34:32;21.90;71.70
26541;DHT22;14206;50.202;10.948;2023-05-10T12:36:59;21.90;72.20
26541;DHT22;14206;50.202;10.948;2023-05-10T12:39:40;21.90;72.70
26541;DHT22;14206;50.202;10.948;2023-05-10T12:42:08;21.90;72.20
26541;DHT22;14206;50.202;10.948;2023-05-10T12:44:35;21.90;72.70
26541;DHT22;14206;50.202;10.948;2023-05-10T12:47:02;21.80;73.40
26541;DHT22;14206;50.202;10.948;2023-05-10T12:49:29;21.80;74.00
26541;DHT22;14206;50.202;10.948;2023-05-10T12:51:55;21.70;73.10
26541;DHT22;14206;50.202;10.948;2023-05-10T12:54:22;21.60;74.10
26541;DHT22;14206;50.202;10.948;2023-05-10T12:56:49;21.30;74.10
26541;DHT22;14206;50.202;10.948;2023-05-10T12:59:16;21.20;75.10
26541;DHT22;14206;50.202;10.948;2023-05-10T13:01:43;21.30;74.10
26541;DHT22;14206;50.202;10.948;2023-05-10T13:04:10;21.30;74.00
26541;DHT22;14206;50.202;10.948;2023-05-10T13:06:38;21.40;74.30
26541;DHT22;14206;50.202;10.948;2023-05-10T13:09:04;21.40;73.80
26541;DHT22;14206;50.202;10.948;2023-05-10T13:11:31;21.40;73.80
26541;DHT22;14206;50.202;10.948;2023-05-10T13:13:58;21.40;73.50
26541;DHT22;14206;50.202;10.948;2023-05-10T13:16:25;21.40;73.40
26541;DHT22;14206;50.202;10.948;2023-05-10T13:18:52;21.40;74.00
26541;DHT22;14206;50.202;10.948;2023-05-10T13:21:19;21.70;73.10
26541;DHT22;14206;50.202;10.948;2023-05-10T13:23:46;21.90;73.50
26541;DHT22;14206;50.202;10.948;2023-05-10T13:26:13;22.20;73.80
26541;DHT22;14206;50.202;10.948;2023-05-10T13:28:40;22.30;72.20
26541;DHT22;14206;50.202;10.948;2023-05-10T13:31:07;22.30;71.50
26541;DHT22;14206;50.202;10.948;2023-05-10T13:33:34;22.40;71.70
26541;DHT22;14206;50.202;10.948;2023-05-10T13:36:01;22.50;71.70
26541;DHT22;14206;50.202;10.948;2023-05-10T13:38:28;22.40;71.30
26541;DHT22;14206;50.202;10.948;2023-05-10T13:40:54;22.40;71.90
26541;DHT22;14206;50.202;10.948;2023-05-10T13:43:21;22.50;72.10
26541;DHT22;14206;50.202;10.948;2023-05-10T13:45:48;22.40;70.50
26541;DHT22;14206;50.202;10.948;2023-05-10T13:48:15;22.30;71.00
26541;DHT22;14206;50.202;10.948;2023-05-10T13:50:43;22.20;71.60
26541;DHT22;14206;50.202;10.948;2023-05-10T13:53:10;22.20;71.40
26541;DHT22;14206;50.202;10.948;2023-05-10T13:55:36;22.30;72.00
26541;DHT22;14206;50.202;10.948;2023-05-10T13:58:03;22.40;70.70
26541;DHT22;14206;50.202;10.948;2023-05-10T14:00:30;22.40;70.20
26541;DHT22;14206;50.202;10.948;2023-05-10T14:02:57;22.40;69.60
26541;DHT22;14206;50.202;10.948;2023-05-10T14:05:24;22.40;71.40
26541;DHT22;14206;50.202;10.948;2023-05-10T14:07:52;22.40;70.50
26541;DHT22;14206;50.202;10.948;2023-05-10T14:10:19;22.50;70.20
26541;DHT22;14206;50.202;10.948;2023-05-10T14:12:46;22.40;71.50
26541;DHT22;14206;50.202;10.948;2023-05-10T14:15:13;22.20;71.60
26541;DHT22;14206;50.202;10.948;2023-05-10T14:17:40;22.20;71.10
26541;DHT22;14206;50.202;10.948;2023-05-10T14:20:07;22.10;70.50
26541;DHT22;14206;50.202;10.948;2023-05-10T14:22:35;22.10;70.60
26541;DHT22;14206;50.202;10.948;2023-05-10T14:25:02;22.20;71.10
26541;DHT22;14206;50.202;10.948;2023-05-10T14:27:29;22.30;68.20
26541;DHT22;14206;50.202;10.948;2023-05-10T14:29:56;22.30;69.30
26541;DHT22;14206;50.202;10.948;2023-05-10T14:32:23;22.40;69.40
26541;DHT22;14206;50.202;10.948;2023-05-10T14:34:50;22.40;67.40
26541;DHT22;14206;50.202;10.948;2023-05-10T14:37:17;22.30;69.80
26541;DHT22;14206;50.202;10.948;2023-05-10T14:39:43;22.30;68.30
26541;DHT22;14206;50.202;10.948;2023-05-10T14:42:11;22.30;68.50
26541;DHT22;14206;50.202;10.948;2023-05-10T14:44:38;22.20;68.70
26541;DHT22;14206;50.202;10.948;2023-05-10T14:47:04;22.10;68.60
26541;DHT22;14206;50.202;10.948;2023-05-10T14:49:31;21.90;68.70
26541;DHT22;14206;50.202;10.948;2023-05-10T14:51:58;21.80;70.40
26541;DHT22;14206;50.202;10.948;2023-05-10T14:54:25;21.60;71.10
26541;DHT22;14206;50.202;10.948;2023-05-10T14:56:52;21.30;73.40
26541;DHT22;14206;50.202;10.948;2023-05-10T14:59:20;21.00;74.20
26541;DHT22;14206;50.202;10.948;2023-05-10T15:01:47;20.80;75.70
26541;DHT22;14206;50.202;10.948;2023-05-10T15:04:14;20.60;76.40
26541;DHT22;14206;50.202;10.948;2023-05-10T15:06:43;20.40;77.90
26541;DHT22;14206;50.202;10.948;2023-05-10T15:09:10;20.20;77.40
26541;DHT22;14206;50.202;10.948;2023-05-10T15:11:37;20.10;78.40
26541;DHT22;14206;50.202;10.948;2023-05-10T15:14:04;20.00;79.00
26541;DHT22;14206;50.202;10.948;2023-05-10T15:16:31;19.80;80.10
26541;DHT22;14206;50.202;10.948;2023-05-10T15:19:01;19.70;80.90
26541;DHT22;14206;50.202;10.948;2023-05-10T15:21:28;19.40;82.80
26541;DHT22;14206;50.202;10.948;2023-05-10T15:23:55;18.80;85.40
26541;DHT22;14206;50.202;10.948;2023-05-10T15:26:22;17.70;87.10
26541;DHT22;14206;50.202;10.948;2023-05-10T15:28:50;16.80;89.30
26541;DHT22;14206;50.202;10.948;2023-05-10T15:31:17;16.10;91.70
26541;DHT22;14206;50.202;10.948;2023-05-10T15:33:44;15.70;93.50
26541;DHT22;14206;50.202;10.948;2023-05-10T15:36:10;15.40;95.30
26541;DHT22;14206;50.202;10.948;2023-05-10T15:38:37;15.10;96.50
26541;DHT22;14206;50.202;10.948;2023-05-10T15:41:04;15.00;96.60
26541;DHT22;14206;50.202;10.948;2023-05-10T15:43:31;14.90;96.60
26541;DHT22;14206;50.202;10.948;2023-05-10T15:45:58;14.80;96.60
26541;DHT22;14206;50.202;10.948;2023-05-10T15:48:25;14.70;96.60
26541;DHT22;14206;50.202;10.948;2023-05-10T15:50:52;14.70;96.60